createdAt,value
2022-11-16T00:07:37.531Z,12.48
2022-11-16T00:17:39.073Z,12.48
2022-11-16T00:27:40.408Z,12.44
2022-11-16T00:37:41.804Z,12.46
2022-11-16T00:47:43.136Z,12.48
2022-11-16T00:57:44.458Z,12.48
2022-11-16T01:07:46.333Z,12.47
2022-11-16T01:17:48.167Z,12.44
2022-11-16T01:27:49.560Z,12.46
2022-11-16T01:37:50.898Z,12.46
2022-11-16T01:47:54.193Z,12.43
2022-11-16T01:57:56.299Z,12.34
2022-11-16T02:08:53.468Z,12.36
2022-11-16T02:19:07.271Z,12.34
2022-11-16T02:29:28.627Z,12.35
2022-11-16T02:39:32.601Z,12.28
2022-11-16T02:49:39.008Z,12.37
2022-11-16T02:59:44.475Z,12.35
2022-11-16T03:09:48.430Z,12.30
2022-11-16T03:20:11.373Z,12.26
2022-11-16T03:30:21.074Z,12.24
2022-11-16T03:40:27.831Z,12.29
2022-11-16T03:50:29.185Z,12.25
2022-11-16T04:00:30.670Z,12.24
2022-11-16T04:10:50.598Z,12.18
2022-11-16T04:21:10.394Z,12.15
2022-11-16T04:31:30.157Z,12.17
2022-11-16T04:41:50.935Z,12.15
2022-11-16T04:51:52.356Z,12.16
2022-11-16T05:02:09.168Z,12.11
2022-11-16T05:12:25.481Z,12.05
2022-11-16T05:22:26.900Z,12.05
2022-11-16T05:32:28.284Z,11.95
2022-11-16T05:42:29.601Z,11.97
2022-11-16T05:52:30.948Z,11.96
2022-11-16T06:02:33.355Z,11.88
2022-11-16T06:12:34.698Z,11.92
2022-11-16T06:22:36.030Z,11.94
2022-11-16T06:32:37.410Z,11.90
2022-11-16T06:42:38.760Z,11.96
2022-11-16T06:52:40.078Z,11.89
2022-11-16T07:02:41.445Z,11.81
2022-11-16T07:12:42.815Z,11.71
2022-11-16T07:22:44.128Z,11.65
2022-11-16T07:32:45.540Z,11.58
2022-11-16T07:42:47.359Z,11.53
2022-11-16T07:52:48.679Z,11.48
2022-11-16T08:02:50.249Z,11.40
2022-11-16T08:12:51.593Z,11.39
2022-11-16T08:22:52.980Z,11.32
2022-11-16T08:32:54.362Z,11.29
2022-11-16T08:42:58.350Z,11.26
2022-11-16T08:53:00.149Z,11.20
2022-11-16T09:03:01.692Z,11.15
2022-11-16T09:13:03.623Z,11.03
2022-11-16T09:23:04.999Z,11.02
2022-11-16T09:33:06.305Z,10.94
2022-11-16T09:43:38.446Z,10.93
2022-11-16T09:53:48.532Z,10.99
2022-11-16T10:03:53.898Z,11.08
2022-11-16T10:14:13.709Z,11.17
2022-11-16T10:24:34.130Z,11.28
2022-11-16T10:34:55.854Z,11.43
2022-11-16T10:44:59.976Z,11.59
2022-11-16T10:55:01.400Z,11.81
2022-11-16T11:05:21.518Z,11.77
2022-11-16T11:15:27.079Z,11.79
2022-11-16T11:25:32.698Z,11.93
2022-11-16T11:35:34.610Z,11.96
2022-11-16T11:45:47.616Z,12.02
2022-11-16T11:55:55.656Z,12.05
2022-11-16T12:06:08.265Z,12.11
2022-11-16T12:16:25.184Z,12.19
2022-11-16T12:27:07.761Z,12.29
2022-11-16T12:37:33.011Z,12.26
2022-11-16T12:47:59.089Z,12.36
2022-11-16T12:58:32.219Z,12.34
2022-11-16T13:08:47.487Z,12.40
2022-11-16T13:18:50.679Z,12.38
2022-11-16T13:29:00.364Z,12.41
2022-11-16T13:39:01.680Z,12.46
2022-11-16T13:49:03.268Z,12.42
2022-11-16T13:59:04.642Z,12.42
2022-11-16T14:09:43.298Z,12.49
2022-11-16T14:19:45.317Z,12.38
2022-11-16T14:30:03.600Z,12.40
2022-11-16T14:40:08.707Z,12.36
2022-11-16T14:50:24.593Z,12.26
2022-11-16T15:00:26.380Z,12.20
2022-11-16T15:10:29.066Z,12.18
2022-11-16T15:20:33.774Z,12.24
2022-11-16T15:30:37.884Z,12.27
2022-11-16T15:40:40.042Z,12.13
2022-11-16T15:51:06.438Z,11.98
2022-11-16T16:01:09.794Z,11.85
2022-11-16T16:11:26.879Z,11.71
2022-11-16T16:21:43.714Z,11.54
2022-11-16T16:31:45.059Z,11.38
2022-11-16T16:41:46.481Z,11.20
2022-11-16T16:51:48.134Z,11.04
2022-11-16T17:01:53.210Z,10.83
2022-11-16T17:11:54.531Z,10.94
2022-11-16T17:21:56.083Z,10.83
2022-11-16T17:31:57.419Z,10.75
2022-11-16T17:41:58.757Z,10.62
2022-11-16T17:52:01.226Z,10.50
2022-11-16T18:02:02.581Z,10.44
2022-11-16T18:12:04.098Z,10.36
2022-11-16T18:22:05.508Z,10.34
2022-11-16T18:32:07.161Z,10.27
2022-11-16T18:42:11.331Z,10.22
2022-11-16T18:52:12.695Z,10.10
2022-11-16T19:02:14.045Z,9.96
2022-11-16T19:12:15.442Z,10.07
2022-11-16T19:22:16.770Z,9.97
2022-11-16T19:32:18.105Z,9.89
2022-11-16T19:42:19.607Z,9.83
2022-11-16T19:52:21.054Z,9.77
2022-11-16T20:02:22.409Z,9.90
2022-11-16T20:12:23.752Z,10.00
2022-11-16T20:22:25.074Z,10.10
2022-11-16T20:32:26.461Z,10.22
2022-11-16T20:42:27.820Z,10.32
2022-11-16T20:52:29.264Z,10.46
2022-11-16T21:02:31.010Z,10.54
2022-11-16T21:12:50.792Z,10.56
2022-11-16T21:22:52.150Z,10.61
2022-11-16T21:32:53.489Z,10.63
2022-11-16T21:42:54.899Z,10.67
2022-11-16T21:52:56.192Z,10.71
2022-11-16T22:02:57.614Z,10.80
2022-11-16T22:12:59.285Z,10.83
2022-11-16T22:23:00.702Z,10.85
2022-11-16T22:33:02.088Z,10.87
2022-11-16T22:43:03.408Z,10.91
2022-11-16T22:53:04.815Z,10.92
2022-11-16T23:03:06.257Z,10.99
2022-11-16T23:13:28.383Z,10.99
2022-11-16T23:23:48.110Z,11.03
2022-11-16T23:33:49.437Z,11.10
2022-11-16T23:44:00.292Z,11.04
2022-11-16T23:54:01.718Z,11.03
